Terminal Aerodrome Forecast
Issued by NWS

Home | Current Version | Previous Version | Text Only | Print | Product List | Glossary On
Versions: 1 2 3 4 5 6 7 8 9 10 11 12 13
000
FTUS45 KABQ 160800 AAA
TAFAEG
TAF AMD
KAEG 160810Z 1608/1706 12007KT P6SM SCT029 BKN100
      TEMPO 1608/1612 BKN029
     FM161200 11006KT P6SM BKN029
     FM161600 15006KT P6SM SCT030
     FM162100 17007KT P6SM SCT060 BKN120
     FM170200 21007KT P6SM VCSH BKN100=

USA.gov is the U.S. government's official web portal to all federal, state and local government web resources and services.